sensor_id;sensor_type;location;lat;lon;timestamp;P1;durP1;ratioP1;P2;durP2;ratioP2
40595;SDS011;26304;48.794;9.820;2023-02-15T00:03:18;2.22;;;2.10;;
40595;SDS011;26304;48.794;9.820;2023-02-15T00:09:00;1.98;;;1.88;;
40595;SDS011;26304;48.794;9.820;2023-02-15T00:14:43;2.28;;;2.15;;
40595;SDS011;26304;48.794;9.820;2023-02-15T00:20:27;1.80;;;1.70;;
40595;SDS011;26304;48.794;9.820;2023-02-15T00:26:10;1.75;;;1.65;;
40595;SDS011;26304;48.794;9.820;2023-02-15T00:31:54;2.25;;;2.08;;
40595;SDS011;26304;48.794;9.820;2023-02-15T00:37:37;2.15;;;2.03;;
40595;SDS011;26304;48.794;9.820;2023-02-15T00:43:20;1.77;;;1.67;;
40595;SDS011;26304;48.794;9.820;2023-02-15T00:49:03;2.10;;;2.00;;
40595;SDS011;26304;48.794;9.820;2023-02-15T00:54:47;1.90;;;1.80;;
40595;SDS011;26304;48.794;9.820;2023-02-15T01:00:29;1.95;;;1.85;;
40595;SDS011;26304;48.794;9.820;2023-02-15T01:06:12;1.80;;;1.70;;
40595;SDS011;26304;48.794;9.820;2023-02-15T01:11:56;2.10;;;2.00;;
40595;SDS011;26304;48.794;9.820;2023-02-15T01:17:39;1.80;;;1.70;;
40595;SDS011;26304;48.794;9.820;2023-02-15T01:23:21;1.80;;;1.70;;
40595;SDS011;26304;48.794;9.820;2023-02-15T01:29:05;1.77;;;1.67;;
40595;SDS011;26304;48.794;9.820;2023-02-15T01:34:48;1.80;;;1.70;;
40595;SDS011;26304;48.794;9.820;2023-02-15T01:40:30;2.22;;;1.70;;
40595;SDS011;26304;48.794;9.820;2023-02-15T01:46:16;2.05;;;1.95;;
40595;SDS011;26304;48.794;9.820;2023-02-15T01:52:00;1.70;;;1.60;;
40595;SDS011;26304;48.794;9.820;2023-02-15T01:57:43;1.80;;;1.70;;
40595;SDS011;26304;48.794;9.820;2023-02-15T02:03:34;1.70;;;1.60;;
40595;SDS011;26304;48.794;9.820;2023-02-15T02:09:23;1.83;;;1.73;;
40595;SDS011;26304;48.794;9.820;2023-02-15T02:15:06;1.60;;;1.50;;
40595;SDS011;26304;48.794;9.820;2023-02-15T02:20:54;1.50;;;1.40;;
40595;SDS011;26304;48.794;9.820;2023-02-15T02:39:33;1.77;;;1.67;;
40595;SDS011;26304;48.794;9.820;2023-02-15T02:45:24;1.50;;;1.40;;
40595;SDS011;26304;48.794;9.820;2023-02-15T02:51:11;1.30;;;1.30;;
40595;SDS011;26304;48.794;9.820;2023-02-15T02:56:55;1.60;;;1.50;;
40595;SDS011;26304;48.794;9.820;2023-02-15T03:02:41;1.23;;;1.13;;
40595;SDS011;26304;48.794;9.820;2023-02-15T03:08:30;1.52;;;1.42;;
40595;SDS011;26304;48.794;9.820;2023-02-15T03:14:18;1.45;;;1.35;;
40595;SDS011;26304;48.794;9.820;2023-02-15T03:20:02;1.60;;;1.50;;
40595;SDS011;26304;48.794;9.820;2023-02-15T03:25:51;1.60;;;1.50;;
40595;SDS011;26304;48.794;9.820;2023-02-15T03:31:39;1.30;;;1.20;;
40595;SDS011;26304;48.794;9.820;2023-02-15T03:37:26;0.98;;;0.98;;
40595;SDS011;26304;48.794;9.820;2023-02-15T03:43:17;0.80;;;0.80;;
40595;SDS011;26304;48.794;9.820;2023-02-15T03:49:04;0.90;;;0.90;;
40595;SDS011;26304;48.794;9.820;2023-02-15T03:54:50;0.63;;;0.63;;
40595;SDS011;26304;48.794;9.820;2023-02-15T04:00:35;0.50;;;0.50;;
40595;SDS011;26304;48.794;9.820;2023-02-15T04:06:40;0.55;;;0.55;;
40595;SDS011;26304;48.794;9.820;2023-02-15T04:12:22;0.50;;;0.50;;
40595;SDS011;26304;48.794;9.820;2023-02-15T04:18:06;0.50;;;0.40;;
40595;SDS011;26304;48.794;9.820;2023-02-15T04:23:49;0.47;;;0.47;;
40595;SDS011;26304;48.794;9.820;2023-02-15T04:29:48;0.50;;;0.40;;
40595;SDS011;26304;48.794;9.820;2023-02-15T04:35:32;0.30;;;0.30;;
40595;SDS011;26304;48.794;9.820;2023-02-15T04:41:15;0.20;;;0.20;;
40595;SDS011;26304;48.794;9.820;2023-02-15T04:46:57;0.20;;;0.20;;
40595;SDS011;26304;48.794;9.820;2023-02-15T04:52:41;0.20;;;0.20;;
40595;SDS011;26304;48.794;9.820;2023-02-15T04:58:23;0.20;;;0.20;;
40595;SDS011;26304;48.794;9.820;2023-02-15T05:04:06;0.30;;;0.30;;
40595;SDS011;26304;48.794;9.820;2023-02-15T05:09:49;0.30;;;0.30;;
40595;SDS011;26304;48.794;9.820;2023-02-15T05:15:32;0.10;;;0.10;;
40595;SDS011;26304;48.794;9.820;2023-02-15T05:21:14;0.20;;;0.20;;
40595;SDS011;26304;48.794;9.820;2023-02-15T05:26:59;0.52;;;0.20;;
40595;SDS011;26304;48.794;9.820;2023-02-15T05:32:59;0.40;;;0.40;;
40595;SDS011;26304;48.794;9.820;2023-02-15T05:38:41;0.80;;;0.32;;
40595;SDS011;26304;48.794;9.820;2023-02-15T05:44:25;0.55;;;0.30;;
40595;SDS011;26304;48.794;9.820;2023-02-15T05:50:08;0.43;;;0.32;;
40595;SDS011;26304;48.794;9.820;2023-02-15T05:55:52;0.63;;;0.40;;
40595;SDS011;26304;48.794;9.820;2023-02-15T06:01:41;1.05;;;0.52;;
40595;SDS011;26304;48.794;9.820;2023-02-15T06:07:23;1.58;;;0.80;;
40595;SDS011;26304;48.794;9.820;2023-02-15T06:13:06;3.08;;;0.95;;
40595;SDS011;26304;48.794;9.820;2023-02-15T06:18:50;1.42;;;0.90;;
40595;SDS011;26304;48.794;9.820;2023-02-15T06:24:32;4.15;;;1.10;;
40595;SDS011;26304;48.794;9.820;2023-02-15T06:30:15;2.60;;;0.82;;
40595;SDS011;26304;48.794;9.820;2023-02-15T06:35:59;3.20;;;1.42;;
40595;SDS011;26304;48.794;9.820;2023-02-15T06:41:42;2.03;;;1.27;;
40595;SDS011;26304;48.794;9.820;2023-02-15T06:47:24;3.00;;;1.10;;
40595;SDS011;26304;48.794;9.820;2023-02-15T06:53:08;3.33;;;1.60;;
40595;SDS011;26304;48.794;9.820;2023-02-15T06:58:51;4.03;;;1.52;;
40595;SDS011;26304;48.794;9.820;2023-02-15T07:04:33;2.83;;;1.35;;
40595;SDS011;26304;48.794;9.820;2023-02-15T07:10:18;4.25;;;1.80;;
40595;SDS011;26304;48.794;9.820;2023-02-15T07:16:00;4.95;;;1.33;;
40595;SDS011;26304;48.794;9.820;2023-02-15T07:21:42;3.42;;;1.35;;
40595;SDS011;26304;48.794;9.820;2023-02-15T07:27:31;6.18;;;1.70;;
40595;SDS011;26304;48.794;9.820;2023-02-15T07:33:13;1.85;;;1.40;;
40595;SDS011;26304;48.794;9.820;2023-02-15T07:39:05;2.85;;;1.40;;
40595;SDS011;26304;48.794;9.820;2023-02-15T07:44:49;2.95;;;1.60;;
40595;SDS011;26304;48.794;9.820;2023-02-15T07:50:31;3.08;;;1.48;;
40595;SDS011;26304;48.794;9.820;2023-02-15T07:56:14;3.22;;;1.85;;
40595;SDS011;26304;48.794;9.820;2023-02-15T08:01:58;2.25;;;1.60;;
40595;SDS011;26304;48.794;9.820;2023-02-15T08:07:41;2.78;;;1.42;;
40595;SDS011;26304;48.794;9.820;2023-02-15T08:13:23;3.30;;;1.55;;
40595;SDS011;26304;48.794;9.820;2023-02-15T08:19:07;3.10;;;1.50;;
40595;SDS011;26304;48.794;9.820;2023-02-15T08:24:51;2.10;;;1.40;;
40595;SDS011;26304;48.794;9.820;2023-02-15T08:30:33;3.83;;;1.60;;
40595;SDS011;26304;48.794;9.820;2023-02-15T08:36:18;3.28;;;1.67;;
40595;SDS011;26304;48.794;9.820;2023-02-15T08:42:01;3.58;;;1.50;;
40595;SDS011;26304;48.794;9.820;2023-02-15T08:47:44;2.65;;;1.45;;
40595;SDS011;26304;48.794;9.820;2023-02-15T08:53:28;3.05;;;1.40;;
40595;SDS011;26304;48.794;9.820;2023-02-15T08:59:12;2.80;;;1.63;;
40595;SDS011;26304;48.794;9.820;2023-02-15T09:04:55;2.35;;;1.20;;
40595;SDS011;26304;48.794;9.820;2023-02-15T09:10:39;1.60;;;1.50;;
40595;SDS011;26304;48.794;9.820;2023-02-15T09:16:22;2.00;;;1.40;;
40595;SDS011;26304;48.794;9.820;2023-02-15T09:22:05;1.30;;;1.20;;
40595;SDS011;26304;48.794;9.820;2023-02-15T09:27:49;2.40;;;1.40;;
40595;SDS011;26304;48.794;9.820;2023-02-15T09:33:32;1.92;;;1.60;;
40595;SDS011;26304;48.794;9.820;2023-02-15T09:39:16;1.65;;;1.33;;
40595;SDS011;26304;48.794;9.820;2023-02-15T09:45:06;2.10;;;1.75;;
40595;SDS011;26304;48.794;9.820;2023-02-15T09:51:00;1.67;;;1.40;;
40595;SDS011;26304;48.794;9.820;2023-02-15T09:57:00;2.05;;;1.40;;
40595;SDS011;26304;48.794;9.820;2023-02-15T10:02:58;1.25;;;1.10;;
40595;SDS011;26304;48.794;9.820;2023-02-15T10:09:03;2.05;;;1.25;;
40595;SDS011;26304;48.794;9.820;2023-02-15T10:15:03;1.40;;;1.30;;
40595;SDS011;26304;48.794;9.820;2023-02-15T10:21:03;1.30;;;1.17;;
40595;SDS011;26304;48.794;9.820;2023-02-15T10:26:55;1.25;;;1.15;;
40595;SDS011;26304;48.794;9.820;2023-02-15T10:32:48;1.27;;;1.20;;
40595;SDS011;26304;48.794;9.820;2023-02-15T10:38:42;2.25;;;1.48;;
40595;SDS011;26304;48.794;9.820;2023-02-15T10:44:32;1.80;;;1.40;;
40595;SDS011;26304;48.794;9.820;2023-02-15T10:50:25;1.23;;;1.10;;
40595;SDS011;26304;48.794;9.820;2023-02-15T10:56:19;2.08;;;1.23;;
40595;SDS011;26304;48.794;9.820;2023-02-15T11:02:09;1.42;;;1.30;;
40595;SDS011;26304;48.794;9.820;2023-02-15T11:07:59;1.42;;;1.30;;
40595;SDS011;26304;48.794;9.820;2023-02-15T11:13:47;2.15;;;1.70;;
40595;SDS011;26304;48.794;9.820;2023-02-15T11:19:33;2.65;;;2.03;;
40595;SDS011;26304;48.794;9.820;2023-02-15T11:25:22;1.77;;;1.45;;
40595;SDS011;26304;48.794;9.820;2023-02-15T11:31:12;1.80;;;1.70;;
40595;SDS011;26304;48.794;9.820;2023-02-15T11:36:58;2.42;;;1.75;;
40595;SDS011;26304;48.794;9.820;2023-02-15T11:42:46;2.42;;;1.65;;
40595;SDS011;26304;48.794;9.820;2023-02-15T11:48:32;1.63;;;1.50;;
40595;SDS011;26304;48.794;9.820;2023-02-15T11:54:15;1.48;;;1.38;;
40595;SDS011;26304;48.794;9.820;2023-02-15T12:00:00;1.48;;;1.38;;
40595;SDS011;26304;48.794;9.820;2023-02-15T12:05:47;2.22;;;1.33;;
40595;SDS011;26304;48.794;9.820;2023-02-15T12:11:35;1.40;;;1.30;;
40595;SDS011;26304;48.794;9.820;2023-02-15T12:17:20;2.42;;;1.80;;
40595;SDS011;26304;48.794;9.820;2023-02-15T12:23:11;2.55;;;2.35;;
40595;SDS011;26304;48.794;9.820;2023-02-15T12:28:56;4.30;;;4.00;;
40595;SDS011;26304;48.794;9.820;2023-02-15T12:34:42;4.95;;;3.92;;
40595;SDS011;26304;48.794;9.820;2023-02-15T12:40:28;3.90;;;3.58;;
40595;SDS011;26304;48.794;9.820;2023-02-15T12:46:22;4.72;;;4.18;;
40595;SDS011;26304;48.794;9.820;2023-02-15T12:52:10;5.55;;;4.45;;
40595;SDS011;26304;48.794;9.820;2023-02-15T12:58:08;5.13;;;4.65;;
40595;SDS011;26304;48.794;9.820;2023-02-15T13:03:59;4.75;;;4.25;;
40595;SDS011;26304;48.794;9.820;2023-02-15T13:09:45;5.97;;;4.10;;
40595;SDS011;26304;48.794;9.820;2023-02-15T13:15:30;6.57;;;4.50;;
40595;SDS011;26304;48.794;9.820;2023-02-15T13:21:17;5.45;;;4.50;;
40595;SDS011;26304;48.794;9.820;2023-02-15T13:27:02;5.32;;;4.50;;
40595;SDS011;26304;48.794;9.820;2023-02-15T13:32:46;4.78;;;4.38;;
40595;SDS011;26304;48.794;9.820;2023-02-15T13:38:43;4.50;;;4.10;;
40595;SDS011;26304;48.794;9.820;2023-02-15T13:51:00;9.32;;;4.80;;
40595;SDS011;26304;48.794;9.820;2023-02-15T13:56:53;5.57;;;4.40;;
40595;SDS011;26304;48.794;9.820;2023-02-15T14:09:01;5.35;;;3.95;;
40595;SDS011;26304;48.794;9.820;2023-02-15T14:15:03;5.22;;;4.22;;
40595;SDS011;26304;48.794;9.820;2023-02-15T14:20:56;5.38;;;4.40;;
40595;SDS011;26304;48.794;9.820;2023-02-15T14:26:49;5.30;;;4.13;;
40595;SDS011;26304;48.794;9.820;2023-02-15T14:32:39;4.72;;;3.85;;
40595;SDS011;26304;48.794;9.820;2023-02-15T14:38:30;3.90;;;3.60;;
40595;SDS011;26304;48.794;9.820;2023-02-15T14:44:29;4.05;;;3.70;;
40595;SDS011;26304;48.794;9.820;2023-02-15T14:50:35;3.92;;;3.47;;
40595;SDS011;26304;48.794;9.820;2023-02-15T14:56:22;4.63;;;4.22;;
40595;SDS011;26304;48.794;9.820;2023-02-15T15:02:09;3.90;;;3.60;;
40595;SDS011;26304;48.794;9.820;2023-02-15T15:07:57;4.38;;;3.88;;
40595;SDS011;26304;48.794;9.820;2023-02-15T15:13:54;3.85;;;3.55;;
40595;SDS011;26304;48.794;9.820;2023-02-15T15:25:55;5.13;;;3.90;;
40595;SDS011;26304;48.794;9.820;2023-02-15T15:31:40;6.15;;;3.72;;
40595;SDS011;26304;48.794;9.820;2023-02-15T15:43:46;4.45;;;3.53;;
40595;SDS011;26304;48.794;9.820;2023-02-15T15:49:54;3.88;;;3.50;;
40595;SDS011;26304;48.794;9.820;2023-02-15T15:55:39;6.18;;;3.72;;
40595;SDS011;26304;48.794;9.820;2023-02-15T16:01:26;12.00;;;3.70;;
40595;SDS011;26304;48.794;9.820;2023-02-15T16:07:13;9.00;;;3.53;;
40595;SDS011;26304;48.794;9.820;2023-02-15T16:13:06;5.60;;;3.22;;
40595;SDS011;26304;48.794;9.820;2023-02-15T16:18:49;7.22;;;3.20;;
40595;SDS011;26304;48.794;9.820;2023-02-15T16:30:39;6.50;;;2.80;;
40595;SDS011;26304;48.794;9.820;2023-02-15T16:36:23;4.15;;;2.40;;
40595;SDS011;26304;48.794;9.820;2023-02-15T16:42:07;3.10;;;2.80;;
40595;SDS011;26304;48.794;9.820;2023-02-15T16:47:53;5.07;;;3.10;;
40595;SDS011;26304;48.794;9.820;2023-02-15T16:53:38;7.63;;;3.03;;
40595;SDS011;26304;48.794;9.820;2023-02-15T16:59:28;5.28;;;3.42;;
40595;SDS011;26304;48.794;9.820;2023-02-15T17:05:16;3.85;;;2.85;;
40595;SDS011;26304;48.794;9.820;2023-02-15T17:11:04;6.47;;;2.40;;
40595;SDS011;26304;48.794;9.820;2023-02-15T17:17:01;3.55;;;2.63;;
40595;SDS011;26304;48.794;9.820;2023-02-15T17:22:50;3.72;;;2.65;;
40595;SDS011;26304;48.794;9.820;2023-02-15T17:28:33;2.55;;;2.35;;
40595;SDS011;26304;48.794;9.820;2023-02-15T17:40:31;2.40;;;2.20;;
40595;SDS011;26304;48.794;9.820;2023-02-15T17:46:14;3.42;;;2.47;;
40595;SDS011;26304;48.794;9.820;2023-02-15T17:51:59;3.67;;;2.03;;
40595;SDS011;26304;48.794;9.820;2023-02-15T17:57:43;2.60;;;2.40;;
40595;SDS011;26304;48.794;9.820;2023-02-15T18:03:28;3.10;;;2.63;;
40595;SDS011;26304;48.794;9.820;2023-02-15T18:09:36;3.50;;;2.10;;
40595;SDS011;26304;48.794;9.820;2023-02-15T18:15:38;3.38;;;2.35;;
40595;SDS011;26304;48.794;9.820;2023-02-15T18:21:20;2.53;;;2.10;;
40595;SDS011;26304;48.794;9.820;2023-02-15T18:27:04;3.53;;;2.25;;
40595;SDS011;26304;48.794;9.820;2023-02-15T18:32:49;3.42;;;2.20;;
40595;SDS011;26304;48.794;9.820;2023-02-15T18:38:33;5.28;;;2.78;;
40595;SDS011;26304;48.794;9.820;2023-02-15T18:44:16;3.25;;;2.72;;
40595;SDS011;26304;48.794;9.820;2023-02-15T18:49:59;4.45;;;2.83;;
40595;SDS011;26304;48.794;9.820;2023-02-15T18:55:42;4.68;;;2.63;;
40595;SDS011;26304;48.794;9.820;2023-02-15T19:01:24;5.03;;;3.03;;
40595;SDS011;26304;48.794;9.820;2023-02-15T19:07:10;3.90;;;2.80;;
40595;SDS011;26304;48.794;9.820;2023-02-15T19:12:57;3.50;;;2.97;;
40595;SDS011;26304;48.794;9.820;2023-02-15T19:18:40;4.43;;;3.15;;
40595;SDS011;26304;48.794;9.820;2023-02-15T19:24:24;5.90;;;2.90;;
40595;SDS011;26304;48.794;9.820;2023-02-15T19:30:13;5.85;;;3.10;;
40595;SDS011;26304;48.794;9.820;2023-02-15T19:35:57;6.45;;;3.35;;
40595;SDS011;26304;48.794;9.820;2023-02-15T19:41:41;5.07;;;3.17;;
40595;SDS011;26304;48.794;9.820;2023-02-15T19:47:24;5.63;;;3.10;;
40595;SDS011;26304;48.794;9.820;2023-02-15T19:53:12;5.72;;;3.20;;
40595;SDS011;26304;48.794;9.820;2023-02-15T19:59:03;4.90;;;3.53;;
40595;SDS011;26304;48.794;9.820;2023-02-15T20:04:46;4.45;;;3.22;;
40595;SDS011;26304;48.794;9.820;2023-02-15T20:10:29;5.43;;;3.13;;
40595;SDS011;26304;48.794;9.820;2023-02-15T20:16:14;5.60;;;3.33;;
40595;SDS011;26304;48.794;9.820;2023-02-15T20:21:56;7.63;;;3.28;;
40595;SDS011;26304;48.794;9.820;2023-02-15T20:27:39;3.25;;;2.88;;
40595;SDS011;26304;48.794;9.820;2023-02-15T20:33:25;3.10;;;2.75;;
40595;SDS011;26304;48.794;9.820;2023-02-15T20:39:11;8.27;;;3.10;;
40595;SDS011;26304;48.794;9.820;2023-02-15T20:44:55;5.10;;;3.95;;
40595;SDS011;26304;48.794;9.820;2023-02-15T20:50:39;6.57;;;5.97;;
40595;SDS011;26304;48.794;9.820;2023-02-15T20:56:22;7.72;;;7.10;;
40595;SDS011;26304;48.794;9.820;2023-02-15T21:02:11;8.18;;;7.40;;
40595;SDS011;26304;48.794;9.820;2023-02-15T21:07:59;7.60;;;6.90;;
40595;SDS011;26304;48.794;9.820;2023-02-15T21:13:41;6.88;;;6.28;;
40595;SDS011;26304;48.794;9.820;2023-02-15T21:19:24;6.13;;;5.63;;
40595;SDS011;26304;48.794;9.820;2023-02-15T21:25:11;7.45;;;5.40;;
40595;SDS011;26304;48.794;9.820;2023-02-15T21:30:56;5.75;;;5.25;;
40595;SDS011;26304;48.794;9.820;2023-02-15T21:36:39;5.38;;;4.90;;
40595;SDS011;26304;48.794;9.820;2023-02-15T21:42:24;6.05;;;5.00;;
40595;SDS011;26304;48.794;9.820;2023-02-15T21:48:24;5.38;;;4.97;;
40595;SDS011;26304;48.794;9.820;2023-02-15T21:54:08;5.68;;;5.18;;
40595;SDS011;26304;48.794;9.820;2023-02-15T21:59:54;5.18;;;4.75;;
40595;SDS011;26304;48.794;9.820;2023-02-15T22:05:36;4.25;;;3.95;;
40595;SDS011;26304;48.794;9.820;2023-02-15T22:11:20;4.70;;;4.40;;
40595;SDS011;26304;48.794;9.820;2023-02-15T22:17:05;4.70;;;4.30;;
40595;SDS011;26304;48.794;9.820;2023-02-15T22:22:55;4.88;;;4.47;;
40595;SDS011;26304;48.794;9.820;2023-02-15T22:28:37;4.78;;;4.38;;
40595;SDS011;26304;48.794;9.820;2023-02-15T22:34:24;4.30;;;3.88;;
40595;SDS011;26304;48.794;9.820;2023-02-15T22:40:12;4.40;;;4.00;;
40595;SDS011;26304;48.794;9.820;2023-02-15T22:45:56;3.80;;;3.50;;
40595;SDS011;26304;48.794;9.820;2023-02-15T22:51:44;4.40;;;4.10;;
40595;SDS011;26304;48.794;9.820;2023-02-15T22:57:29;4.55;;;4.15;;
40595;SDS011;26304;48.794;9.820;2023-02-15T23:03:14;3.78;;;3.50;;
40595;SDS011;26304;48.794;9.820;2023-02-15T23:09:00;4.07;;;3.78;;
40595;SDS011;26304;48.794;9.820;2023-02-15T23:14:43;4.10;;;3.80;;
40595;SDS011;26304;48.794;9.820;2023-02-15T23:20:26;3.95;;;3.65;;
40595;SDS011;26304;48.794;9.820;2023-02-15T23:26:15;3.85;;;3.55;;
40595;SDS011;26304;48.794;9.820;2023-02-15T23:31:59;3.67;;;3.47;;
40595;SDS011;26304;48.794;9.820;2023-02-15T23:37:41;3.85;;;3.55;;
40595;SDS011;26304;48.794;9.820;2023-02-15T23:43:25;3.65;;;3.33;;
40595;SDS011;26304;48.794;9.820;2023-02-15T23:49:09;3.50;;;3.30;;
40595;SDS011;26304;48.794;9.820;2023-02-15T23:54:55;3.28;;;3.08;;
